sensor_id;sensor_type;location;lat;lon;timestamp;pressure;altitude;pressure_sealevel;temperature;humidity
62544;BME280;48597;49.030;1.822;2024-03-25T00:02:08;100260.16;;;21.13;41.30
62544;BME280;48597;49.030;1.822;2024-03-25T00:04:34;100256.47;;;21.13;41.48
62544;BME280;48597;49.030;1.822;2024-03-25T00:06:59;100250.75;;;21.13;41.31
62544;BME280;48597;49.030;1.822;2024-03-25T00:09:25;100258.88;;;21.14;41.29
62544;BME280;48597;49.030;1.822;2024-03-25T00:11:50;100252.81;;;21.12;41.10
62544;BME280;48597;49.030;1.822;2024-03-25T00:14:20;100254.88;;;21.12;41.04
62544;BME280;48597;49.030;1.822;2024-03-25T00:16:45;100251.22;;;21.11;41.24
62544;BME280;48597;49.030;1.822;2024-03-25T00:19:12;100252.03;;;21.12;41.72
62544;BME280;48597;49.030;1.822;2024-03-25T00:21:37;100252.03;;;21.12;41.40
62544;BME280;48597;49.030;1.822;2024-03-25T00:24:02;100231.97;;;21.12;41.12
62544;BME280;48597;49.030;1.822;2024-03-25T00:26:28;100235.28;;;21.10;41.40
62544;BME280;48597;49.030;1.822;2024-03-25T00:28:53;100236.91;;;21.11;41.35
62544;BME280;48597;49.030;1.822;2024-03-25T00:31:19;100238.97;;;21.11;41.26
62544;BME280;48597;49.030;1.822;2024-03-25T00:33:45;100227.50;;;21.11;41.16
62544;BME280;48597;49.030;1.822;2024-03-25T00:36:10;100225.09;;;21.09;41.28
62544;BME280;48597;49.030;1.822;2024-03-25T00:38:36;100215.22;;;21.10;41.24
62544;BME280;48597;49.030;1.822;2024-03-25T00:41:01;100213.16;;;21.11;41.26
62544;BME280;48597;49.030;1.822;2024-03-25T00:43:27;100210.31;;;21.11;41.09
62544;BME280;48597;49.030;1.822;2024-03-25T00:45:52;100202.97;;;21.10;40.92
62544;BME280;48597;49.030;1.822;2024-03-25T00:48:17;100199.31;;;21.09;40.84
62544;BME280;48597;49.030;1.822;2024-03-25T00:50:43;100194.38;;;21.10;40.90
62544;BME280;48597;49.030;1.822;2024-03-25T00:53:08;100205.84;;;21.10;40.99
62544;BME280;48597;49.030;1.822;2024-03-25T00:55:34;100204.25;;;21.09;41.06
62544;BME280;48597;49.030;1.822;2024-03-25T00:58:01;100190.72;;;21.09;40.93
62544;BME280;48597;49.030;1.822;2024-03-25T01:00:27;100185.78;;;21.10;40.78
62544;BME280;48597;49.030;1.822;2024-03-25T01:02:52;100180.06;;;21.10;40.97
62544;BME280;48597;49.030;1.822;2024-03-25T01:05:18;100176.38;;;21.09;40.99
62544;BME280;48597;49.030;1.822;2024-03-25T01:07:43;100175.13;;;21.10;40.93
62544;BME280;48597;49.030;1.822;2024-03-25T01:10:09;100158.41;;;21.09;41.00
62544;BME280;48597;49.030;1.822;2024-03-25T01:12:34;100155.53;;;21.09;40.78
62544;BME280;48597;49.030;1.822;2024-03-25T01:15:00;100146.94;;;21.09;40.68
62544;BME280;48597;49.030;1.822;2024-03-25T01:17:27;100141.19;;;21.09;40.70
62544;BME280;48597;49.030;1.822;2024-03-25T01:19:52;100129.75;;;21.09;40.83
62544;BME280;48597;49.030;1.822;2024-03-25T01:22:18;100135.47;;;21.09;40.63
62544;BME280;48597;49.030;1.822;2024-03-25T01:24:43;100129.75;;;21.09;40.83
62544;BME280;48597;49.030;1.822;2024-03-25T01:27:09;100130.53;;;21.09;40.76
62544;BME280;48597;49.030;1.822;2024-03-25T01:29:34;100137.06;;;21.10;40.60
62544;BME280;48597;49.030;1.822;2024-03-25T01:32:00;100130.53;;;21.09;40.57
62544;BME280;48597;49.030;1.822;2024-03-25T01:34:26;100133.41;;;21.09;40.81
62544;BME280;48597;49.030;1.822;2024-03-25T01:36:51;100141.19;;;21.09;40.59
62544;BME280;48597;49.030;1.822;2024-03-25T01:39:18;100130.53;;;21.09;40.73
62544;BME280;48597;49.030;1.822;2024-03-25T01:41:43;100126.88;;;21.09;40.65
62544;BME280;48597;49.030;1.822;2024-03-25T01:44:08;100116.69;;;21.08;40.84
62544;BME280;48597;49.030;1.822;2024-03-25T01:46:34;100107.28;;;21.07;40.59
62544;BME280;48597;49.030;1.822;2024-03-25T01:49:01;100105.22;;;21.08;40.70
62544;BME280;48597;49.030;1.822;2024-03-25T01:51:26;100110.94;;;21.08;40.45
62544;BME280;48597;49.030;1.822;2024-03-25T01:53:53;100102.34;;;21.08;40.50
62544;BME280;48597;49.030;1.822;2024-03-25T01:56:20;100096.63;;;21.08;40.65
62544;BME280;48597;49.030;1.822;2024-03-25T01:58:47;100089.31;;;21.07;40.69
62544;BME280;48597;49.030;1.822;2024-03-25T02:01:13;100084.38;;;21.07;40.43
62544;BME280;48597;49.030;1.822;2024-03-25T02:03:41;100073.69;;;21.08;40.52
62544;BME280;48597;49.030;1.822;2024-03-25T02:06:15;100072.44;;;21.09;40.63
62544;BME280;48597;49.030;1.822;2024-03-25T02:08:41;100067.19;;;21.07;40.61
62544;BME280;48597;49.030;1.822;2024-03-25T02:11:07;100070.03;;;21.07;40.61
62544;BME280;48597;49.030;1.822;2024-03-25T02:13:35;100054.91;;;21.07;40.68
62544;BME280;48597;49.030;1.822;2024-03-25T02:16:01;100049.19;;;21.07;40.59
62544;BME280;48597;49.030;1.822;2024-03-25T02:18:26;100055.72;;;21.07;40.46
62544;BME280;48597;49.030;1.822;2024-03-25T02:20:52;100048.38;;;21.06;40.55
62544;BME280;48597;49.030;1.822;2024-03-25T02:23:18;100053.66;;;21.08;40.55
62544;BME280;48597;49.030;1.822;2024-03-25T02:25:49;100058.56;;;21.07;40.43
62544;BME280;48597;49.030;1.822;2024-03-25T02:28:15;100052.84;;;21.07;40.47
62544;BME280;48597;49.030;1.822;2024-03-25T02:30:40;100054.13;;;21.06;40.26
62544;BME280;48597;49.030;1.822;2024-03-25T02:33:05;100052.06;;;21.07;40.63
62544;BME280;48597;49.030;1.822;2024-03-25T02:35:31;100049.19;;;21.07;40.19
62544;BME280;48597;49.030;1.822;2024-03-25T02:37:57;100053.66;;;21.08;40.52
62544;BME280;48597;49.030;1.822;2024-03-25T02:40:23;100050.78;;;21.08;40.18
62544;BME280;48597;49.030;1.822;2024-03-25T02:42:49;100042.97;;;21.08;40.38
62544;BME280;48597;49.030;1.822;2024-03-25T02:45:15;100049.50;;;21.09;40.32
62544;BME280;48597;49.030;1.822;2024-03-25T02:47:40;100045.03;;;21.08;40.22
62544;BME280;48597;49.030;1.822;2024-03-25T02:50:06;100042.19;;;21.08;40.44
62544;BME280;48597;49.030;1.822;2024-03-25T02:52:31;100050.78;;;21.08;40.18
62544;BME280;48597;49.030;1.822;2024-03-25T02:54:56;100038.53;;;21.07;40.44
62544;BME280;48597;49.030;1.822;2024-03-25T02:57:22;100036.44;;;21.08;40.28
62544;BME280;48597;49.030;1.822;2024-03-25T02:59:48;100028.34;;;21.06;40.34
62544;BME280;48597;49.030;1.822;2024-03-25T03:02:13;100024.66;;;21.05;40.19
62544;BME280;48597;49.030;1.822;2024-03-25T03:04:38;100018.16;;;21.05;40.31
62544;BME280;48597;49.030;1.822;2024-03-25T03:07:04;100011.63;;;21.04;40.06
62544;BME280;48597;49.030;1.822;2024-03-25T03:09:30;100003.53;;;21.03;40.06
62544;BME280;48597;49.030;1.822;2024-03-25T03:11:55;99994.94;;;21.03;40.16
62544;BME280;48597;49.030;1.822;2024-03-25T03:14:21;99998.56;;;21.03;40.39
62544;BME280;48597;49.030;1.822;2024-03-25T03:16:46;99997.00;;;21.02;40.23
62544;BME280;48597;49.030;1.822;2024-03-25T03:19:12;99989.69;;;21.01;39.99
62544;BME280;48597;49.030;1.822;2024-03-25T03:21:37;99976.16;;;21.02;40.36
62544;BME280;48597;49.030;1.822;2024-03-25T03:24:03;99964.69;;;21.02;40.06
62544;BME280;48597;49.030;1.822;2024-03-25T03:26:29;99970.41;;;21.02;40.36
62544;BME280;48597;49.030;1.822;2024-03-25T03:28:55;99963.09;;;21.01;40.04
62544;BME280;48597;49.030;1.822;2024-03-25T03:31:20;99965.16;;;21.00;40.05
62544;BME280;48597;49.030;1.822;2024-03-25T03:33:51;99952.91;;;21.00;40.32
62544;BME280;48597;49.030;1.822;2024-03-25T03:36:22;99951.63;;;21.01;40.23
62544;BME280;48597;49.030;1.822;2024-03-25T03:38:50;99961.19;;;20.98;40.37
62544;BME280;48597;49.030;1.822;2024-03-25T03:41:15;99948.94;;;20.97;40.31
62544;BME280;48597;49.030;1.822;2024-03-25T03:43:40;99948.94;;;20.97;40.15
62544;BME280;48597;49.030;1.822;2024-03-25T03:46:06;99946.84;;;20.98;40.23
62544;BME280;48597;49.030;1.822;2024-03-25T03:48:31;99955.44;;;20.98;40.34
62544;BME280;48597;49.030;1.822;2024-03-25T03:50:57;99946.84;;;20.98;40.09
62544;BME280;48597;49.030;1.822;2024-03-25T03:53:22;99945.28;;;20.97;40.27
62544;BME280;48597;49.030;1.822;2024-03-25T03:55:59;99948.13;;;20.97;40.33
62544;BME280;48597;49.030;1.822;2024-03-25T03:58:25;99947.34;;;20.96;40.15
62544;BME280;48597;49.030;1.822;2024-03-25T04:00:51;99947.34;;;20.96;40.25
62544;BME280;48597;49.030;1.822;2024-03-25T04:03:17;99945.75;;;20.95;40.04
62544;BME280;48597;49.030;1.822;2024-03-25T04:05:43;99944.94;;;20.95;40.13
62544;BME280;48597;49.030;1.822;2024-03-25T04:08:08;99938.44;;;20.94;40.20
62544;BME280;48597;49.030;1.822;2024-03-25T04:10:34;99947.03;;;20.94;40.30
62544;BME280;48597;49.030;1.822;2024-03-25T04:13:00;99936.84;;;20.93;40.02
62544;BME280;48597;49.030;1.822;2024-03-25T04:15:25;99926.66;;;20.92;40.14
62544;BME280;48597;49.030;1.822;2024-03-25T04:17:51;99928.72;;;20.92;40.04
62544;BME280;48597;49.030;1.822;2024-03-25T04:20:17;99925.06;;;20.91;40.06
62544;BME280;48597;49.030;1.822;2024-03-25T04:22:43;99909.94;;;20.91;40.29
62544;BME280;48597;49.030;1.822;2024-03-25T04:25:09;99914.88;;;20.90;40.08
62544;BME280;48597;49.030;1.822;2024-03-25T04:27:40;99901.84;;;20.89;40.23
62544;BME280;48597;49.030;1.822;2024-03-25T04:30:06;99897.41;;;20.88;40.21
62544;BME280;48597;49.030;1.822;2024-03-25T04:32:33;99893.75;;;20.88;40.25
62544;BME280;48597;49.030;1.822;2024-03-25T04:34:59;99898.66;;;20.87;40.25
62544;BME280;48597;49.030;1.822;2024-03-25T04:37:25;99902.81;;;20.86;40.24
62544;BME280;48597;49.030;1.822;2024-03-25T04:39:50;99896.28;;;20.86;40.20
62544;BME280;48597;49.030;1.822;2024-03-25T04:42:16;99889.75;;;20.85;40.15
62544;BME280;48597;49.030;1.822;2024-03-25T04:44:41;99886.09;;;20.85;40.04
62544;BME280;48597;49.030;1.822;2024-03-25T04:47:06;99880.84;;;20.83;40.02
62544;BME280;48597;49.030;1.822;2024-03-25T04:49:32;99885.31;;;20.84;40.07
62544;BME280;48597;49.030;1.822;2024-03-25T04:51:57;99882.13;;;20.82;40.03
62544;BME280;48597;49.030;1.822;2024-03-25T04:59:13;99869.88;;;20.82;40.21
62544;BME280;48597;49.030;1.822;2024-03-25T05:01:38;99869.06;;;20.81;39.88
62544;BME280;48597;49.030;1.822;2024-03-25T05:04:04;99874.81;;;20.81;40.12
62544;BME280;48597;49.030;1.822;2024-03-25T05:06:29;99859.69;;;20.81;40.09
62544;BME280;48597;49.030;1.822;2024-03-25T05:08:54;99867.47;;;20.80;40.23
62544;BME280;48597;49.030;1.822;2024-03-25T05:11:20;99863.03;;;20.79;40.02
62544;BME280;48597;49.030;1.822;2024-03-25T05:13:45;99860.16;;;20.79;40.24
62544;BME280;48597;49.030;1.822;2024-03-25T05:16:11;99855.72;;;20.78;40.12
62544;BME280;48597;49.030;1.822;2024-03-25T05:18:36;99855.72;;;20.78;40.03
62544;BME280;48597;49.030;1.822;2024-03-25T05:21:01;99857.00;;;20.77;40.26
62544;BME280;48597;49.030;1.822;2024-03-25T05:23:27;99851.28;;;20.77;40.15
62544;BME280;48597;49.030;1.822;2024-03-25T05:25:52;99846.84;;;20.76;40.15
62544;BME280;48597;49.030;1.822;2024-03-25T05:28:18;99850.97;;;20.75;40.31
62544;BME280;48597;49.030;1.822;2024-03-25T05:30:43;99847.63;;;20.77;40.18
62544;BME280;48597;49.030;1.822;2024-03-25T05:33:08;99846.84;;;20.76;40.39
62544;BME280;48597;49.030;1.822;2024-03-25T05:35:34;99848.09;;;20.75;40.04
62544;BME280;48597;49.030;1.822;2024-03-25T05:38:02;99850.97;;;20.75;40.16
62544;BME280;48597;49.030;1.822;2024-03-25T05:40:29;99848.09;;;20.75;40.22
62544;BME280;48597;49.030;1.822;2024-03-25T05:42:54;99846.53;;;20.74;40.14
62544;BME280;48597;49.030;1.822;2024-03-25T05:45:20;99840.00;;;20.74;40.10
62544;BME280;48597;49.030;1.822;2024-03-25T05:47:45;99840.78;;;20.74;40.22
62544;BME280;48597;49.030;1.822;2024-03-25T05:50:11;99842.84;;;20.74;39.99
62544;BME280;48597;49.030;1.822;2024-03-25T05:52:36;99836.34;;;20.73;40.28
62544;BME280;48597;49.030;1.822;2024-03-25T05:55:02;99831.88;;;20.72;39.91
62544;BME280;48597;49.030;1.822;2024-03-25T05:57:27;99837.59;;;20.72;40.06
62544;BME280;48597;49.030;1.822;2024-03-25T05:59:53;99836.03;;;20.71;39.90
62544;BME280;48597;49.030;1.822;2024-03-25T06:02:18;99840.47;;;20.72;40.13
62544;BME280;48597;49.030;1.822;2024-03-25T06:04:44;99839.69;;;20.72;39.99
62544;BME280;48597;49.030;1.822;2024-03-25T06:07:09;99835.22;;;20.71;40.02
62544;BME280;48597;49.030;1.822;2024-03-25T06:09:34;99834.44;;;20.70;39.99
62544;BME280;48597;49.030;1.822;2024-03-25T06:12:00;99833.16;;;20.71;40.00
62544;BME280;48597;49.030;1.822;2024-03-25T06:14:25;99841.75;;;20.71;40.24
62544;BME280;48597;49.030;1.822;2024-03-25T06:16:50;99841.75;;;20.71;40.08
62544;BME280;48597;49.030;1.822;2024-03-25T06:19:16;99840.16;;;20.70;40.18
62544;BME280;48597;49.030;1.822;2024-03-25T06:21:41;99834.44;;;20.70;40.05
62544;BME280;48597;49.030;1.822;2024-03-25T06:24:08;99832.34;;;20.71;40.09
62544;BME280;48597;49.030;1.822;2024-03-25T06:26:33;99823.44;;;20.68;40.01
62544;BME280;48597;49.030;1.822;2024-03-25T06:28:59;99822.19;;;20.69;40.13
62544;BME280;48597;49.030;1.822;2024-03-25T06:31:25;99812.78;;;20.69;39.94
62544;BME280;48597;49.030;1.822;2024-03-25T06:34:09;99807.06;;;20.69;40.05
62544;BME280;48597;49.030;1.822;2024-03-25T06:36:43;99814.88;;;20.68;39.90
62544;BME280;48597;49.030;1.822;2024-03-25T06:39:10;99801.34;;;20.69;40.03
62544;BME280;48597;49.030;1.822;2024-03-25T06:41:35;99797.69;;;20.68;40.18
62544;BME280;48597;49.030;1.822;2024-03-25T06:44:01;99800.53;;;20.68;40.03
62544;BME280;48597;49.030;1.822;2024-03-25T06:46:26;99800.53;;;20.68;39.94
62544;BME280;48597;49.030;1.822;2024-03-25T06:48:51;99795.63;;;20.69;40.20
62544;BME280;48597;49.030;1.822;2024-03-25T06:51:20;99783.38;;;20.68;40.10
62544;BME280;48597;49.030;1.822;2024-03-25T06:53:45;99786.22;;;20.68;40.09
62544;BME280;48597;49.030;1.822;2024-03-25T06:56:10;99782.09;;;20.69;40.08
62544;BME280;48597;49.030;1.822;2024-03-25T06:58:36;99782.88;;;20.70;40.09
62544;BME280;48597;49.030;1.822;2024-03-25T07:01:06;99780.03;;;20.70;40.22
62544;BME280;48597;49.030;1.822;2024-03-25T07:03:33;99761.25;;;20.69;40.42
62544;BME280;48597;49.030;1.822;2024-03-25T07:05:58;99774.59;;;20.72;40.42
62544;BME280;48597;49.030;1.822;2024-03-25T07:08:25;99767.59;;;20.73;40.32
62544;BME280;48597;49.030;1.822;2024-03-25T07:10:51;99756.16;;;20.73;40.48
62544;BME280;48597;49.030;1.822;2024-03-25T07:13:17;99758.53;;;20.75;40.34
62544;BME280;48597;49.030;1.822;2024-03-25T07:15:42;99753.59;;;20.75;40.23
62544;BME280;48597;49.030;1.822;2024-03-25T07:18:08;99740.38;;;20.78;40.21
62544;BME280;48597;49.030;1.822;2024-03-25T07:20:36;99744.03;;;20.78;40.12
62544;BME280;48597;49.030;1.822;2024-03-25T07:23:02;99738.59;;;20.80;40.10
62544;BME280;48597;49.030;1.822;2024-03-25T07:25:28;99743.06;;;20.81;40.10
62544;BME280;48597;49.030;1.822;2024-03-25T07:27:54;99738.91;;;20.82;40.16
62544;BME280;48597;49.030;1.822;2024-03-25T07:30:20;99735.88;;;20.86;40.09
62544;BME280;48597;49.030;1.822;2024-03-25T07:32:47;99734.91;;;20.89;40.23
62544;BME280;48597;49.030;1.822;2024-03-25T07:35:13;99733.13;;;20.91;40.04
62544;BME280;48597;49.030;1.822;2024-03-25T07:37:42;99736.31;;;20.93;40.21
62544;BME280;48597;49.030;1.822;2024-03-25T07:40:08;99733.75;;;20.95;40.62
62544;BME280;48597;49.030;1.822;2024-03-25T07:42:34;99735.66;;;20.98;40.69
62544;BME280;48597;49.030;1.822;2024-03-25T07:45:00;99731.81;;;21.01;40.54
62544;BME280;48597;49.030;1.822;2024-03-25T07:47:25;99737.66;;;21.07;40.45
62544;BME280;48597;49.030;1.822;2024-03-25T07:49:51;99726.81;;;21.11;40.72
62544;BME280;48597;49.030;1.822;2024-03-25T07:52:16;99727.44;;;21.15;40.67
62544;BME280;48597;49.030;1.822;2024-03-25T07:54:42;99720.25;;;21.20;40.28
62544;BME280;48597;49.030;1.822;2024-03-25T07:57:08;99725.03;;;21.23;40.42
62544;BME280;48597;49.030;1.822;2024-03-25T07:59:34;99716.25;;;21.26;40.43
62544;BME280;48597;49.030;1.822;2024-03-25T08:01:59;99711.09;;;21.30;40.28
62544;BME280;48597;49.030;1.822;2024-03-25T08:04:25;99703.13;;;21.34;40.40
62544;BME280;48597;49.030;1.822;2024-03-25T08:06:50;99707.88;;;21.37;40.15
62544;BME280;48597;49.030;1.822;2024-03-25T08:09:16;99691.78;;;21.40;39.94
62544;BME280;48597;49.030;1.822;2024-03-25T08:11:42;99693.66;;;21.43;40.06
62544;BME280;48597;49.030;1.822;2024-03-25T08:14:11;99681.22;;;21.46;40.18
62544;BME280;48597;49.030;1.822;2024-03-25T08:16:36;99682.00;;;21.47;40.07
62544;BME280;48597;49.030;1.822;2024-03-25T08:19:02;99683.91;;;21.50;40.19
62544;BME280;48597;49.030;1.822;2024-03-25T08:21:27;99670.34;;;21.50;39.99
62544;BME280;48597;49.030;1.822;2024-03-25T08:23:53;99662.53;;;21.51;40.39
62544;BME280;48597;49.030;1.822;2024-03-25T08:26:18;99659.19;;;21.52;40.14
62544;BME280;48597;49.030;1.822;2024-03-25T08:28:44;99657.91;;;21.53;40.11
62544;BME280;48597;49.030;1.822;2024-03-25T08:31:09;99657.41;;;21.55;40.24
62544;BME280;48597;49.030;1.822;2024-03-25T08:33:35;99645.16;;;21.54;40.55
62544;BME280;48597;49.030;1.822;2024-03-25T08:36:00;99648.81;;;21.55;40.18
62544;BME280;48597;49.030;1.822;2024-03-25T08:38:25;99636.56;;;21.54;40.02
62544;BME280;48597;49.030;1.822;2024-03-25T08:40:51;99627.66;;;21.52;40.42
62544;BME280;48597;49.030;1.822;2024-03-25T08:43:17;99627.97;;;21.54;40.35
62544;BME280;48597;49.030;1.822;2024-03-25T08:45:43;99628.44;;;21.53;40.24
62544;BME280;48597;49.030;1.822;2024-03-25T08:48:09;99617.75;;;21.53;40.24
62544;BME280;48597;49.030;1.822;2024-03-25T08:50:34;99618.25;;;21.52;40.16
62544;BME280;48597;49.030;1.822;2024-03-25T08:53:00;99620.34;;;21.51;39.93
62544;BME280;48597;49.030;1.822;2024-03-25T08:55:27;99619.06;;;21.52;39.83
62544;BME280;48597;49.030;1.822;2024-03-25T08:57:52;99606.00;;;21.51;39.94
62544;BME280;48597;49.030;1.822;2024-03-25T09:00:18;99606.00;;;21.51;40.25
62544;BME280;48597;49.030;1.822;2024-03-25T09:02:43;99615.38;;;21.52;40.01
62544;BME280;48597;49.030;1.822;2024-03-25T09:05:09;99604.72;;;21.52;40.17
62544;BME280;48597;49.030;1.822;2024-03-25T09:07:35;99603.91;;;21.52;40.08
62544;BME280;48597;49.030;1.822;2024-03-25T09:10:00;99594.03;;;21.53;40.01
62544;BME280;48597;49.030;1.822;2024-03-25T09:12:44;99590.38;;;21.52;39.96
62544;BME280;48597;49.030;1.822;2024-03-25T09:15:10;99600.25;;;21.51;40.01
62544;BME280;48597;49.030;1.822;2024-03-25T09:17:36;99583.06;;;21.51;39.89
62544;BME280;48597;49.030;1.822;2024-03-25T09:20:02;99591.66;;;21.51;39.92
62544;BME280;48597;49.030;1.822;2024-03-25T09:22:45;99580.19;;;21.51;40.00
62544;BME280;48597;49.030;1.822;2024-03-25T09:25:10;99575.75;;;21.50;40.11
62544;BME280;48597;49.030;1.822;2024-03-25T09:27:36;99575.75;;;21.50;39.83
62544;BME280;48597;49.030;1.822;2024-03-25T09:30:03;99579.09;;;21.49;39.87
62544;BME280;48597;49.030;1.822;2024-03-25T09:32:32;99572.09;;;21.50;39.92
62544;BME280;48597;49.030;1.822;2024-03-25T09:34:58;99574.66;;;21.48;39.86
62544;BME280;48597;49.030;1.822;2024-03-25T09:37:23;99574.66;;;21.48;39.88
62544;BME280;48597;49.030;1.822;2024-03-25T09:39:49;99576.72;;;21.47;39.72
62544;BME280;48597;49.030;1.822;2024-03-25T09:42:15;99566.03;;;21.48;39.87
62544;BME280;48597;49.030;1.822;2024-03-25T09:44:43;99557.13;;;21.46;39.75
62544;BME280;48597;49.030;1.822;2024-03-25T09:47:09;99552.19;;;21.46;39.59
62544;BME280;48597;49.030;1.822;2024-03-25T09:49:38;99546.97;;;21.45;39.72
62544;BME280;48597;49.030;1.822;2024-03-25T09:52:06;99542.81;;;21.46;39.76
62544;BME280;48597;49.030;1.822;2024-03-25T09:54:31;99542.50;;;21.44;39.63
62544;BME280;48597;49.030;1.822;2024-03-25T09:56:57;99534.69;;;21.44;39.77
62544;BME280;48597;49.030;1.822;2024-03-25T09:59:23;99538.84;;;21.43;39.77
62544;BME280;48597;49.030;1.822;2024-03-25T10:01:48;99529.47;;;21.43;39.72
62544;BME280;48597;49.030;1.822;2024-03-25T10:04:14;99521.66;;;21.43;39.60
62544;BME280;48597;49.030;1.822;2024-03-25T10:06:39;99527.09;;;21.41;39.72
62544;BME280;48597;49.030;1.822;2024-03-25T10:09:05;99507.03;;;21.41;39.49
62544;BME280;48597;49.030;1.822;2024-03-25T10:11:32;99499.72;;;21.40;39.84
62544;BME280;48597;49.030;1.822;2024-03-25T10:14:01;99519.78;;;21.40;40.05
62544;BME280;48597;49.030;1.822;2024-03-25T10:16:26;99507.22;;;21.37;39.91
62544;BME280;48597;49.030;1.822;2024-03-25T10:18:52;99500.72;;;21.37;39.97
62544;BME280;48597;49.030;1.822;2024-03-25T10:21:22;99497.84;;;21.37;40.06
62544;BME280;48597;49.030;1.822;2024-03-25T10:23:51;99497.53;;;21.35;39.93
62544;BME280;48597;49.030;1.822;2024-03-25T10:26:28;99503.75;;;21.33;40.01
62544;BME280;48597;49.030;1.822;2024-03-25T10:29:04;99500.91;;;21.33;40.01
62544;BME280;48597;49.030;1.822;2024-03-25T10:31:31;99489.44;;;21.33;40.10
62544;BME280;48597;49.030;1.822;2024-03-25T10:33:57;99486.25;;;21.31;40.20
62544;BME280;48597;49.030;1.822;2024-03-25T10:36:24;99469.84;;;21.32;39.98
62544;BME280;48597;49.030;1.822;2024-03-25T10:38:56;99465.41;;;21.31;40.22
62544;BME280;48597;49.030;1.822;2024-03-25T10:41:23;99452.88;;;21.28;40.33
62544;BME280;48597;49.030;1.822;2024-03-25T10:43:51;99443.50;;;21.28;39.91
62544;BME280;48597;49.030;1.822;2024-03-25T10:46:20;99446.06;;;21.26;40.10
62544;BME280;48597;49.030;1.822;2024-03-25T10:48:58;99432.53;;;21.26;40.00
62544;BME280;48597;49.030;1.822;2024-03-25T10:51:26;99428.88;;;21.26;40.21
62544;BME280;48597;49.030;1.822;2024-03-25T10:53:52;99417.91;;;21.24;40.31
62544;BME280;48597;49.030;1.822;2024-03-25T10:56:21;99412.97;;;21.25;40.34
62544;BME280;48597;49.030;1.822;2024-03-25T10:58:49;99404.84;;;21.23;40.47
62544;BME280;48597;49.030;1.822;2024-03-25T11:01:17;99398.31;;;21.23;40.31
62544;BME280;48597;49.030;1.822;2024-03-25T11:03:47;99396.75;;;21.22;40.48
62544;BME280;48597;49.030;1.822;2024-03-25T11:06:13;99396.75;;;21.22;40.35
62544;BME280;48597;49.030;1.822;2024-03-25T11:08:39;99395.94;;;21.21;40.29
62544;BME280;48597;49.030;1.822;2024-03-25T11:11:07;99393.09;;;21.21;40.47
62544;BME280;48597;49.030;1.822;2024-03-25T11:13:32;99382.13;;;21.20;40.31
62544;BME280;48597;49.030;1.822;2024-03-25T11:15:58;99380.53;;;21.19;40.48
62544;BME280;48597;49.030;1.822;2024-03-25T11:18:25;99377.66;;;21.19;40.29
62544;BME280;48597;49.030;1.822;2024-03-25T11:21:04;99374.81;;;21.19;40.52
62544;BME280;48597;49.030;1.822;2024-03-25T11:23:43;99365.38;;;21.18;40.26
62544;BME280;48597;49.030;1.822;2024-03-25T11:26:26;99363.81;;;21.17;40.35
62544;BME280;48597;49.030;1.822;2024-03-25T11:28:52;99352.06;;;21.15;40.17
62544;BME280;48597;49.030;1.822;2024-03-25T11:31:21;99345.56;;;21.15;40.22
62544;BME280;48597;49.030;1.822;2024-03-25T11:33:49;99334.88;;;21.15;40.34
62544;BME280;48597;49.030;1.822;2024-03-25T11:36:15;99339.03;;;21.14;40.25
62544;BME280;48597;49.030;1.822;2024-03-25T11:38:40;99338.25;;;21.14;40.15
62544;BME280;48597;49.030;1.822;2024-03-25T11:41:10;99323.13;;;21.13;40.23
62544;BME280;48597;49.030;1.822;2024-03-25T11:43:36;99310.09;;;21.12;40.52
62544;BME280;48597;49.030;1.822;2024-03-25T11:46:01;99302.28;;;21.13;40.29
62544;BME280;48597;49.030;1.822;2024-03-25T11:48:29;99282.72;;;21.11;40.30
62544;BME280;48597;49.030;1.822;2024-03-25T11:50:54;99281.94;;;21.11;40.36
62544;BME280;48597;49.030;1.822;2024-03-25T11:53:19;99281.94;;;21.11;40.47
62544;BME280;48597;49.030;1.822;2024-03-25T11:55:48;99281.94;;;21.11;40.22
62544;BME280;48597;49.030;1.822;2024-03-25T11:58:16;99268.88;;;21.10;40.25
62544;BME280;48597;49.030;1.822;2024-03-25T12:00:46;99265.22;;;21.09;40.35
62544;BME280;48597;49.030;1.822;2024-03-25T12:03:14;99255.84;;;21.09;40.62
62544;BME280;48597;49.030;1.822;2024-03-25T12:05:40;99255.06;;;21.08;40.23
62544;BME280;48597;49.030;1.822;2024-03-25T12:08:09;99252.19;;;21.08;40.21
62544;BME280;48597;49.030;1.822;2024-03-25T12:10:36;99249.81;;;21.07;40.36
62544;BME280;48597;49.030;1.822;2024-03-25T12:13:20;99234.72;;;21.06;40.53
62544;BME280;48597;49.030;1.822;2024-03-25T12:15:47;99243.31;;;21.06;40.28
62544;BME280;48597;49.030;1.822;2024-03-25T12:18:16;99229.47;;;21.04;40.21
62544;BME280;48597;49.030;1.822;2024-03-25T12:20:41;99227.41;;;21.05;40.28
62544;BME280;48597;49.030;1.822;2024-03-25T12:23:07;99215.69;;;21.03;40.16
62544;BME280;48597;49.030;1.822;2024-03-25T12:25:33;99210.72;;;21.03;40.28
62544;BME280;48597;49.030;1.822;2024-03-25T12:27:58;99212.81;;;21.03;40.53
62544;BME280;48597;49.030;1.822;2024-03-25T12:30:23;99205.50;;;21.02;40.48
62544;BME280;48597;49.030;1.822;2024-03-25T12:32:50;99204.22;;;21.03;40.03
62544;BME280;48597;49.030;1.822;2024-03-25T12:35:16;99187.53;;;21.01;40.42
62544;BME280;48597;49.030;1.822;2024-03-25T12:37:45;99191.69;;;21.00;40.42
62544;BME280;48597;49.030;1.822;2024-03-25T12:40:11;99183.88;;;21.01;40.06
62544;BME280;48597;49.030;1.822;2024-03-25T12:42:38;99170.34;;;21.01;40.28
62544;BME280;48597;49.030;1.822;2024-03-25T12:45:06;99160.16;;;21.00;40.37
62544;BME280;48597;49.030;1.822;2024-03-25T12:47:32;99163.03;;;21.00;40.09
62544;BME280;48597;49.030;1.822;2024-03-25T12:49:58;99165.09;;;21.00;40.25
62544;BME280;48597;49.030;1.822;2024-03-25T12:52:23;99158.59;;;20.99;40.15
62544;BME280;48597;49.030;1.822;2024-03-25T12:54:49;99157.31;;;21.00;40.18
62544;BME280;48597;49.030;1.822;2024-03-25T12:57:14;99137.75;;;20.99;39.95
62544;BME280;48597;49.030;1.822;2024-03-25T12:59:40;99137.25;;;21.00;39.91